Time;durP1;ratioP1;P1;durP2;ratioP2;P2;SDS_P1;SDS_P2;PMS_P1;PMS_P2;Temp;Humidity;BMP_temperature;BMP_pressure;BME280_temperature;BME280_humidity;BME280_pressure;Samples;Min_cycle;Max_cycle;Signal;HPM_P1;HPM_P2
2022/03/15 00:01:24;;;;;;;9.80;4.28;;;;;;;2.49;76.10;98505.31;5020848;28;20041;-65
2022/03/15 00:03:51;;;;;;;11.75;4.70;;;;;;;2.28;77.05;98502.19;5025612;28;20049;-66
2022/03/15 00:06:18;;;;;;;10.68;4.60;;;;;;;2.32;77.48;98508.06;5025456;28;20065;-66
2022/03/15 00:08:44;;;;;;;12.93;4.72;;;;;;;2.46;76.37;98512.69;5023820;28;20049;-68
2022/03/15 00:11:12;;;;;;;8.77;4.47;;;;;;;2.64;76.02;98508.94;5033170;28;20029;-66
2022/03/15 00:13:39;;;;;;;9.00;3.95;;;;;;;2.83;75.32;98506.84;5028774;28;20045;-65
2022/03/15 00:16:07;;;;;;;11.43;4.75;;;;;;;2.68;76.15;98510.28;5026750;28;20116;-66
2022/03/15 00:18:35;;;;;;;9.32;4.40;;;;;;;2.36;77.40;98513.88;5026498;28;20496;-66
2022/03/15 00:21:04;;;;;;;10.85;4.47;;;;;;;2.52;76.68;98505.81;5026161;28;20045;-66
2022/03/15 00:23:32;;;;;;;8.40;4.05;;;;;;;2.55;76.68;98505.44;5027145;28;20059;-66
2022/03/15 00:26:00;;;;;;;10.73;3.80;;;;;;;2.57;76.64;98511.47;5025739;28;20041;-66
2022/03/15 00:28:26;;;;;;;11.43;4.82;;;;;;;2.72;76.10;98500.06;5027254;28;20497;-65
2022/03/15 00:30:53;;;;;;;8.15;4.00;;;;;;;2.77;75.47;98508.41;5025227;28;20425;-66
2022/03/15 00:33:20;;;;;;;10.40;4.07;;;;;;;2.62;76.62;98508.31;5041779;28;20064;-66
2022/03/15 00:35:51;;;;;;;8.15;4.43;;;;;;;2.15;78.19;98502.72;5025095;28;20072;-66
2022/03/15 00:38:17;;;;;;;7.97;4.03;;;;;;;2.23;77.71;98501.88;5022542;28;20045;-65
2022/03/15 00:40:44;;;;;;;10.35;4.10;;;;;;;2.25;78.04;98505.19;5016812;28;20068;-66
2022/03/15 00:43:14;;;;;;;7.30;3.85;;;;;;;2.20;78.19;98504.88;5025917;28;20136;-66
2022/03/15 00:45:41;;;;;;;6.88;3.63;;;;;;;2.22;78.81;98502.88;5026148;28;20041;-66
2022/03/15 00:48:07;;;;;;;7.60;3.05;;;;;;;2.47;77.40;98500.16;5026336;28;20248;-66
2022/03/15 00:50:40;;;;;;;9.05;3.67;;;;;;;2.47;78.05;98487.59;5025899;28;20635;-65
2022/03/15 00:53:07;;;;;;;;;;;;;;;2.45;77.91;98486.97;5025467;28;20049;-66
2022/03/15 00:55:35;;;;;;;6.28;3.28;;;;;;;2.59;77.41;98492.59;5024672;28;19925;-65
2022/03/15 00:58:01;;;;;;;6.68;3.33;;;;;;;2.73;76.45;98477.66;5031327;28;20048;-65
2022/03/15 01:00:31;;;;;;;9.10;3.80;;;;;;;2.54;77.90;98485.06;5040164;28;20115;-66
2022/03/15 01:03:00;;;;;;;10.43;3.70;;;;;;;2.56;77.68;98483.09;5026191;28;20056;-65
2022/03/15 01:05:27;;;;;;;5.85;3.00;;;;;;;2.80;76.84;98473.28;5024701;28;20132;-65
2022/03/15 01:07:54;;;;;;;8.07;3.47;;;;;;;2.76;76.97;98473.81;5026626;28;20432;-66
2022/03/15 01:10:21;;;;;;;7.43;3.40;;;;;;;2.72;76.84;98467.97;5024692;28;20053;-65
2022/03/15 01:12:48;;;;;;;7.20;3.13;;;;;;;2.70;76.43;98468.13;5024300;28;20149;-65
2022/03/15 01:15:15;;;;;;;6.93;3.58;;;;;;;2.78;77.05;98469.09;5025944;28;20444;-65
2022/03/15 01:17:42;;;;;;;7.80;3.10;;;;;;;2.62;77.24;98470.03;5023652;28;20041;-66
2022/03/15 01:20:10;;;;;;;5.22;3.30;;;;;;;2.65;77.85;98458.97;5024867;28;20034;-66
2022/03/15 01:22:37;;;;;;;5.63;3.40;;;;;;;2.75;77.25;98461.44;5025922;28;20052;-67
2022/03/15 01:25:06;;;;;;;7.22;3.20;;;;;;;2.65;78.26;98464.34;5025787;28;20049;-66
2022/03/15 01:27:35;;;;;;;6.70;3.40;;;;;;;2.76;77.98;98466.59;5025318;28;20128;-65
2022/03/15 01:30:05;;;;;;;7.70;3.45;;;;;;;2.70;77.88;98461.97;5025345;28;20040;-65
2022/03/15 01:32:32;;;;;;;7.45;3.22;;;;;;;2.79;77.39;98444.03;5025283;28;20041;-65
2022/03/15 01:34:59;;;;;;;7.18;3.60;;;;;;;2.46;78.08;98448.53;5025294;28;20049;-66
2022/03/15 01:37:25;;;;;;;6.85;3.38;;;;;;;2.52;78.46;98444.31;5024464;28;20056;-66
2022/03/15 01:39:55;;;;;;;7.13;3.55;;;;;;;2.68;77.30;98445.25;5039927;28;20604;-65
2022/03/15 01:42:21;;;;;;;6.28;3.63;;;;;;;2.76;77.12;98439.03;5027287;28;20053;-65
2022/03/15 01:44:49;;;;;;;7.47;3.85;;;;;;;2.78;77.22;98437.84;5024315;28;20509;-65
2022/03/15 01:47:17;;;;;;;7.25;3.53;;;;;;;2.94;76.46;98436.94;5026905;28;20528;-65
2022/03/15 01:49:44;;;;;;;6.70;3.10;;;;;;;2.88;76.89;98434.97;5024263;28;20045;-67
2022/03/15 01:52:13;;;;;;;6.18;3.15;;;;;;;2.93;76.52;98423.72;5023301;28;20037;-66
2022/03/15 01:54:40;;;;;;;7.65;3.13;;;;;;;2.75;77.45;98429.31;5025583;28;20041;-66
2022/03/15 01:57:08;;;;;;;6.25;3.60;;;;;;;2.62;77.90;98429.91;5023737;28;20045;-65
2022/03/15 01:59:36;;;;;;;6.95;3.65;;;;;;;2.62;78.02;98427.25;5032665;28;20131;-65
2022/03/15 02:02:04;;;;;;;7.40;3.60;;;;;;;2.61;78.13;98434.41;5024131;28;20033;-65
2022/03/15 02:04:32;;;;;;;7.93;3.38;;;;;;;2.61;78.33;98439.75;5025505;28;20125;-64
2022/03/15 02:07:08;;;;;;;8.52;3.70;;;;;;;2.78;77.54;98437.84;5025094;28;20402;-65
2022/03/15 02:09:35;;;;;;;6.32;3.45;;;;;;;2.94;76.56;98439.59;5023413;28;20045;-65
2022/03/15 02:12:03;;;;;;;5.10;2.80;;;;;;;2.98;76.92;98434.72;5025455;28;20655;-65
2022/03/15 02:14:30;;;;;;;6.45;2.70;;;;;;;3.04;76.58;98427.84;5024729;28;20505;-64
2022/03/15 02:16:57;;;;;;;8.27;3.10;;;;;;;2.97;76.68;98438.41;5024579;28;20046;-66
2022/03/15 02:19:24;;;;;;;8.07;3.45;;;;;;;2.95;77.00;98435.09;5025767;28;20052;-68
2022/03/15 02:21:51;;;;;;;6.38;3.42;;;;;;;2.89;77.44;98423.25;5024755;28;20041;-65
2022/03/15 02:24:18;;;;;;;7.47;3.40;;;;;;;2.73;77.95;98430.34;5025155;28;20068;-65
2022/03/15 02:26:45;;;;;;;6.72;3.58;;;;;;;2.63;78.67;98419.03;5025051;28;20071;-67
2022/03/15 02:29:11;;;;;;;6.22;3.80;;;;;;;2.67;78.67;98422.19;5022633;28;20614;-65
2022/03/15 02:31:38;;;;;;;7.07;3.50;;;;;;;2.66;78.94;98421.38;5024906;28;20263;-65
2022/03/15 02:34:06;;;;;;;9.32;3.63;;;;;;;2.75;77.86;98416.81;5025314;28;20041;-65
2022/03/15 02:36:32;;;;;;;9.02;4.10;;;;;;;2.80;77.81;98418.97;5024228;28;20041;-65
2022/03/15 02:38:59;;;;;;;10.00;3.72;;;;;;;2.92;77.03;98420.22;5025315;28;20080;-65
2022/03/15 02:41:26;;;;;;;6.53;3.38;;;;;;;2.88;77.72;98421.59;5024326;28;20045;-66
2022/03/15 02:43:53;;;;;;;8.20;3.63;;;;;;;2.92;77.08;98420.22;5024864;28;20520;-67
2022/03/15 02:46:19;;;;;;;9.98;3.83;;;;;;;3.07;76.52;98419.47;5032772;28;20056;-66
2022/03/15 02:48:46;;;;;;;13.27;3.70;;;;;;;2.94;77.14;98409.31;5028092;28;20136;-66
2022/03/15 02:51:15;;;;;;;8.88;3.67;;;;;;;2.93;77.12;98408.50;5020989;28;20095;-65
2022/03/15 02:53:42;;;;;;;6.95;3.15;;;;;;;3.03;77.04;98410.13;5027108;28;20037;-67
2022/03/15 02:56:11;;;;;;;7.65;3.40;;;;;;;2.92;77.13;98398.81;5043286;28;20516;-66
2022/03/15 02:58:39;;;;;;;6.35;3.65;;;;;;;2.67;78.53;98406.16;5029098;28;20120;-66
2022/03/15 03:01:07;;;;;;;6.93;3.15;;;;;;;2.60;78.89;98404.19;5034709;28;20393;-66
2022/03/15 03:03:35;;;;;;;5.97;3.33;;;;;;;2.62;79.19;98398.66;5032863;28;20041;-65
2022/03/15 03:06:02;;;;;;;8.48;3.28;;;;;;;2.59;79.13;98404.34;5034350;28;20049;-65
2022/03/15 03:08:30;;;;;;;8.88;3.38;;;;;;;2.58;79.51;98400.03;5026556;28;20045;-65
2022/03/15 03:11:01;;;;;;;7.50;3.55;;;;;;;2.66;79.84;98396.47;5028286;28;20107;-66
2022/03/15 03:13:28;;;;;;;8.88;3.42;;;;;;;2.58;79.47;98394.66;5027939;28;20037;-66
2022/03/15 03:15:57;;;;;;;8.45;3.58;;;;;;;2.47;80.26;98395.91;5028123;28;20045;-66
2022/03/15 03:18:25;;;;;;;9.07;3.60;;;;;;;2.41;80.64;98401.91;5028030;28;20591;-66
2022/03/15 03:20:53;;;;;;;6.40;3.38;;;;;;;2.45;80.74;98389.88;5027374;28;20503;-67
2022/03/15 03:23:20;;;;;;;10.27;3.50;;;;;;;2.44;80.86;98388.22;5028392;28;20467;-65
2022/03/15 03:25:46;;;;;;;5.78;2.70;;;;;;;2.64;79.78;98387.75;5027672;28;20438;-66
2022/03/15 03:28:13;;;;;;;5.80;3.40;;;;;;;2.71;80.03;98389.59;5026643;28;20041;-66
2022/03/15 03:30:47;;;;;;;6.93;3.47;;;;;;;2.66;79.88;98388.44;5028137;28;20049;-65
2022/03/15 03:33:15;;;;;;;10.68;3.80;;;;;;;2.74;79.72;98383.03;5027587;28;20049;-66
2022/03/15 03:35:49;;;;;;;6.90;3.63;;;;;;;2.81;79.48;98373.31;5026613;28;20107;-66
2022/03/15 03:38:17;;;;;;;7.32;3.63;;;;;;;2.93;78.67;98373.72;5026656;28;20041;-65
2022/03/15 03:40:43;;;;;;;8.82;3.60;;;;;;;3.06;78.46;98370.44;5028003;28;20049;-69
2022/03/15 03:43:10;;;;;;;5.53;3.08;;;;;;;2.83;79.35;98373.13;5027181;28;20527;-66
2022/03/15 03:45:37;;;;;;;7.65;3.22;;;;;;;2.78;79.70;98372.81;5027584;28;20378;-66
2022/03/15 03:48:06;;;;;;;6.22;3.25;;;;;;;2.74;79.90;98372.34;5026052;28;20033;-65
2022/03/15 03:50:34;;;;;;;8.75;3.45;;;;;;;2.76;79.52;98367.63;5027753;28;20621;-64
2022/03/15 03:53:00;;;;;;;10.43;3.83;;;;;;;2.80;79.25;98371.63;5029569;28;20041;-64
2022/03/15 03:55:27;;;;;;;7.45;3.80;;;;;;;2.79;79.42;98374.47;5027375;28;20053;-65
2022/03/15 03:57:54;;;;;;;6.13;3.28;;;;;;;2.76;79.56;98364.97;5029028;28;20056;-66
2022/03/15 04:00:20;;;;;;;6.80;3.38;;;;;;;2.86;79.26;98354.88;5027741;28;20536;-66
2022/03/15 04:02:47;;;;;;;7.43;3.17;;;;;;;2.90;79.13;98355.34;5027280;28;20537;-68
2022/03/15 04:05:15;;;;;;;8.75;3.80;;;;;;;2.82;79.18;98374.13;5026969;28;20435;-66
2022/03/15 04:07:43;;;;;;;7.28;3.83;;;;;;;2.78;79.77;98371.00;5031696;28;20045;-66
2022/03/15 04:10:10;;;;;;;5.80;2.90;;;;;;;2.89;79.36;98369.75;5028641;28;20068;-66
2022/03/15 04:12:37;;;;;;;9.57;3.63;;;;;;;2.78;80.00;98370.16;5027650;28;20087;-65
2022/03/15 04:15:04;;;;;;;5.68;2.85;;;;;;;2.82;80.09;98368.78;5027820;28;20046;-65
2022/03/15 04:17:32;;;;;;;7.47;3.28;;;;;;;3.04;78.89;98358.25;5026416;28;20046;-65
2022/03/15 04:19:58;;;;;;;9.68;3.55;;;;;;;2.98;78.87;98355.28;5027389;28;20390;-67
2022/03/15 04:22:25;;;;;;;6.32;3.38;;;;;;;2.82;79.26;98372.31;5026155;28;20194;-65
2022/03/15 04:24:52;;;;;;;8.23;3.50;;;;;;;2.81;79.69;98362.63;5027398;28;20754;-66
2022/03/15 04:27:18;;;;;;;7.22;3.28;;;;;;;2.97;79.17;98353.63;5026678;28;20041;-66
2022/03/15 04:29:45;;;;;;;7.32;3.60;;;;;;;3.05;78.58;98351.88;5026859;28;20041;-66
2022/03/15 04:32:12;;;;;;;7.28;3.55;;;;;;;2.84;79.68;98362.25;5027567;28;20054;-65
2022/03/15 04:34:38;;;;;;;7.28;3.83;;;;;;;2.71;79.69;98357.50;5025650;28;20171;-65
2022/03/15 04:37:05;;;;;;;8.27;3.58;;;;;;;2.87;79.34;98355.69;5024191;28;20080;-65
2022/03/15 04:39:33;;;;;;;8.82;3.67;;;;;;;2.99;78.70;98348.94;5026742;28;20412;-65
2022/03/15 04:42:00;;;;;;;8.48;3.55;;;;;;;3.05;78.69;98341.19;5026626;28;20509;-66
2022/03/15 04:44:26;;;;;;;8.00;3.33;;;;;;;3.01;78.83;98339.88;5026066;28;20053;-66
2022/03/15 04:46:53;;;;;;;12.05;3.38;;;;;;;3.03;79.01;98352.09;5026023;28;20108;-66
2022/03/15 04:49:19;;;;;;;6.65;3.58;;;;;;;3.10;78.92;98346.84;5027063;28;20041;-65
2022/03/15 04:51:46;;;;;;;8.65;3.33;;;;;;;3.20;78.06;98342.06;5026955;28;20041;-66
2022/03/15 04:54:14;;;;;;;11.10;3.17;;;;;;;3.19;78.27;98343.09;5025917;28;20052;-65
2022/03/15 04:56:41;;;;;;;9.73;3.58;;;;;;;3.25;78.49;98349.56;5026033;28;20558;-65
2022/03/15 04:59:07;;;;;;;7.22;3.58;;;;;;;3.29;77.51;98345.53;5039723;28;20037;-66
2022/03/15 05:01:34;;;;;;;5.97;3.40;;;;;;;3.33;77.92;98346.00;5038364;28;20659;-65
2022/03/15 05:04:01;;;;;;;8.52;3.17;;;;;;;3.34;77.33;98344.97;5026546;28;20227;-65
2022/03/15 05:06:28;;;;;;;9.57;3.05;;;;;;;3.40;77.76;98343.41;5025925;28;20049;-65
2022/03/15 05:08:55;;;;;;;8.90;3.70;;;;;;;3.44;77.22;98344.72;5024747;28;20045;-65
2022/03/15 05:11:21;;;;;;;9.32;3.17;;;;;;;3.38;77.76;98341.75;5030474;28;20604;-65
2022/03/15 05:13:48;;;;;;;10.95;3.17;;;;;;;3.34;77.41;98332.44;5026033;28;20064;-65
2022/03/15 05:16:18;;;;;;;9.65;3.67;;;;;;;3.44;77.97;98331.34;5025998;28;20048;-66
2022/03/15 05:18:46;;;;;;;9.93;3.22;;;;;;;3.44;77.02;98325.97;5025948;28;20052;-66
2022/03/15 05:21:16;;;;;;;10.85;3.88;;;;;;;3.42;76.87;98336.06;5025824;28;20048;-66
2022/03/15 05:23:47;;;;;;;15.20;3.35;;;;;;;3.13;78.01;98322.38;5026347;28;20133;-66
2022/03/15 05:26:15;;;;;;;8.80;3.58;;;;;;;3.15;77.83;98328.41;5023622;28;20042;-65
2022/03/15 05:28:43;;;;;;;6.15;3.60;;;;;;;3.12;77.76;98328.75;5026347;28;20060;-67
2022/03/15 05:31:10;;;;;;;7.25;3.42;;;;;;;3.09;78.51;98329.13;5025321;28;20073;-66
2022/03/15 05:33:38;;;;;;;10.75;3.60;;;;;;;3.12;78.26;98323.41;5019847;28;20343;-66
2022/03/15 05:36:04;;;;;;;7.50;3.42;;;;;;;2.85;78.74;98330.97;5024574;28;20107;-66
2022/03/15 05:38:31;;;;;;;11.85;3.40;;;;;;;2.74;79.70;98332.22;5025752;28;20049;-65
2022/03/15 05:40:57;;;;;;;10.57;4.07;;;;;;;2.60;80.75;98342.69;5025177;28;20052;-66
2022/03/15 05:43:44;;;;;;;9.45;3.85;;;;;;;2.80;80.43;98328.03;5020008;28;20480;-69
2022/03/15 05:46:11;;;;;;;9.88;4.05;;;;;;;3.02;78.96;98334.34;5024319;28;20132;-67
2022/03/15 05:48:38;;;;;;;10.57;3.95;;;;;;;3.01;79.08;98318.47;5024073;28;20049;-66
2022/03/15 05:51:04;;;;;;;6.88;3.42;;;;;;;3.04;78.87;98316.28;5020779;28;20068;-66
2022/03/15 05:53:32;;;;;;;5.30;3.10;;;;;;;3.09;78.57;98315.72;5022688;28;20115;-65
2022/03/15 05:56:01;;;;;;;9.43;3.40;;;;;;;3.08;78.25;98309.56;5018464;28;20076;-66
2022/03/15 05:58:27;;;;;;;8.35;3.63;;;;;;;3.19;78.12;98310.13;5018923;28;20042;-66
2022/03/15 06:00:56;;;;;;;9.38;3.53;;;;;;;3.21;78.52;98310.81;5023007;28;20224;-67
2022/03/15 06:03:23;;;;;;;8.60;3.58;;;;;;;3.22;78.20;98315.13;5024096;28;20072;-67
2022/03/15 06:05:52;;;;;;;7.18;3.53;;;;;;;3.34;77.83;98302.97;5024849;28;20049;-66
2022/03/15 06:08:19;;;;;;;7.90;3.30;;;;;;;3.48;77.74;98301.34;5021783;28;20052;-67
2022/03/15 06:10:45;;;;;;;6.40;3.53;;;;;;;3.62;76.97;98302.34;5023800;28;20046;-67
2022/03/15 06:13:13;;;;;;;8.68;3.72;;;;;;;3.70;76.68;98304.13;5025259;28;20048;-65
2022/03/15 06:15:41;;;;;;;10.32;3.63;;;;;;;3.79;75.82;98304.84;5033718;28;20049;-66
2022/03/15 06:18:08;;;;;;;8.65;3.05;;;;;;;3.86;75.85;98303.09;5023272;28;20046;-68
2022/03/15 06:20:35;;;;;;;9.35;3.22;;;;;;;3.96;75.98;98300.16;5022830;28;20056;-67
2022/03/15 06:23:03;;;;;;;7.25;3.28;;;;;;;4.01;75.21;98297.72;5030364;28;20045;-67
2022/03/15 06:25:30;;;;;;;7.82;3.53;;;;;;;4.00;75.47;98308.63;5026779;28;20056;-66
2022/03/15 06:27:58;;;;;;;8.25;3.58;;;;;;;3.94;76.03;98304.84;5026635;28;20516;-67
2022/03/15 06:30:24;;;;;;;11.07;3.67;;;;;;;4.05;75.96;98308.09;5026243;28;20095;-66
2022/03/15 06:32:51;;;;;;;8.95;3.25;;;;;;;4.25;75.08;98303.81;5016689;28;20851;-66
2022/03/15 06:35:19;;;;;;;7.72;3.63;;;;;;;4.20;75.27;98308.88;5026438;28;20504;-66
2022/03/15 06:37:48;;;;;;;6.07;2.90;;;;;;;4.35;74.85;98310.72;5026569;28;20049;-67
2022/03/15 06:40:25;;;;;;;11.30;3.38;;;;;;;4.50;74.50;98313.38;5026397;28;20042;-66
2022/03/15 06:42:55;;;;;;;5.43;3.30;;;;;;;4.73;73.92;98312.34;5027462;28;20037;-66
2022/03/15 06:45:22;;;;;;;7.20;3.67;;;;;;;4.87;73.27;98316.81;5024621;28;20049;-68
2022/03/15 06:47:50;;;;;;;7.22;3.15;;;;;;;4.71;74.01;98319.78;5026939;28;20060;-66
2022/03/15 06:50:17;;;;;;;7.28;3.85;;;;;;;4.72;74.32;98310.69;5025794;28;20048;-66
2022/03/15 06:52:46;;;;;;;7.10;3.33;;;;;;;4.90;73.67;98302.22;5029061;28;20084;-67
2022/03/15 06:55:13;;;;;;;11.80;3.70;;;;;;;4.99;72.71;98297.53;5027658;28;20531;-66
2022/03/15 06:57:41;;;;;;;9.00;3.78;;;;;;;5.06;73.38;98303.78;5028524;28;20041;-67
2022/03/15 07:00:13;;;;;;;8.27;3.88;;;;;;;5.12;73.38;98307.56;5021975;28;20115;-66
2022/03/15 07:02:40;;;;;;;8.82;4.15;;;;;;;5.15;72.47;98307.16;5024507;28;20049;-67
2022/03/15 07:05:08;;;;;;;9.30;4.03;;;;;;;5.26;72.04;98309.31;5023961;28;20041;-67
2022/03/15 07:07:35;;;;;;;8.65;4.10;;;;;;;5.36;71.51;98295.56;5037672;28;20058;-66
2022/03/15 07:10:05;;;;;;;14.93;4.57;;;;;;;5.42;71.15;98304.72;5024796;28;20050;-66
2022/03/15 07:12:34;;;;;;;10.80;4.03;;;;;;;5.51;71.20;98291.94;5037589;28;20033;-66
2022/03/15 07:15:04;;;;;;;10.65;3.72;;;;;;;5.71;70.67;98295.59;5027390;28;20132;-65
2022/03/15 07:17:31;;;;;;;7.00;3.13;;;;;;;5.82;69.42;98291.50;5024227;28;20049;-66
2022/03/15 07:19:58;;;;;;;8.00;3.17;;;;;;;5.94;68.95;98297.16;5026705;28;20099;-67
2022/03/15 07:22:26;;;;;;;8.07;3.10;;;;;;;5.81;68.69;98289.88;5024603;28;20436;-67
2022/03/15 07:24:52;;;;;;;7.10;3.17;;;;;;;5.86;68.32;98289.25;5021851;28;20053;-67
2022/03/15 07:27:20;;;;;;;8.10;3.00;;;;;;;5.83;68.21;98289.66;5027913;28;20038;-67
2022/03/15 07:29:47;;;;;;;7.45;2.60;;;;;;;5.90;67.68;98293.19;5027708;28;20049;-68
2022/03/15 07:32:14;;;;;;;8.00;2.92;;;;;;;5.83;67.94;98292.34;5026147;28;20697;-66
2022/03/15 07:34:40;;;;;;;10.02;3.00;;;;;;;5.66;68.47;98292.66;5028472;28;20056;-66
2022/03/15 07:37:07;;;;;;;6.47;3.20;;;;;;;5.51;68.91;98281.19;5026506;28;20034;-67
2022/03/15 07:39:34;;;;;;;8.13;2.97;;;;;;;5.41;69.41;98277.00;5023127;28;20038;-65
2022/03/15 07:42:00;;;;;;;5.03;2.45;;;;;;;5.41;69.62;98285.06;5025827;28;20139;-66
2022/03/15 07:44:32;;;;;;;;;;;;;;;5.48;69.83;98282.41;5020761;28;20053;-67
2022/03/15 07:46:59;;;;;;;6.30;2.35;;;;;;;5.66;69.04;98273.03;5022453;28;19940;-65
2022/03/15 07:49:25;;;;;;;6.65;2.60;;;;;;;5.84;68.63;98275.19;5023891;28;20048;-66
2022/03/15 07:51:53;;;;;;;7.00;2.55;;;;;;;5.86;68.12;98270.44;5025726;28;20073;-66
2022/03/15 07:54:19;;;;;;;5.20;2.47;;;;;;;6.10;67.62;98271.00;5021357;28;20048;-66
2022/03/15 07:56:47;;;;;;;7.47;2.70;;;;;;;6.28;66.99;98270.47;5024971;28;20061;-65
2022/03/15 07:59:17;;;;;;;6.28;2.58;;;;;;;6.49;67.26;98269.47;5024349;28;20484;-65
2022/03/15 08:01:43;;;;;;;7.60;3.17;;;;;;;6.67;68.83;98264.56;5025112;28;20048;-64
2022/03/15 08:04:10;;;;;;;6.75;2.53;;;;;;;6.88;64.87;98258.97;5024757;28;20430;-66
2022/03/15 08:06:37;;;;;;;6.70;2.38;;;;;;;6.98;65.58;98257.75;5025255;28;20048;-64
2022/03/15 08:09:04;;;;;;;6.53;2.42;;;;;;;7.21;64.90;98272.66;5019988;28;20501;-63
2022/03/15 08:11:30;;;;;;;8.23;2.72;;;;;;;6.67;65.28;98278.00;5023580;28;20057;-63
2022/03/15 08:13:58;;;;;;;13.25;3.33;;;;;;;6.48;65.61;98281.28;5021389;28;20116;-70
2022/03/15 08:16:25;;;;;;;9.98;2.60;;;;;;;6.68;65.61;98275.13;5024755;28;20386;-66
2022/03/15 08:18:54;;;;;;;9.10;2.90;;;;;;;6.96;64.17;98270.59;5027938;28;20124;-67
2022/03/15 08:21:22;;;;;;;7.22;2.47;;;;;;;6.88;64.31;98271.59;5027085;28;20136;-66
2022/03/15 08:23:49;;;;;;;9.38;3.15;;;;;;;6.82;64.62;98277.81;5026289;28;20455;-66
2022/03/15 08:26:17;;;;;;;7.32;3.05;;;;;;;6.81;64.56;98268.91;5024314;28;20045;-66
2022/03/15 08:28:45;;;;;;;10.27;2.58;;;;;;;6.85;64.35;98266.63;5024298;28;20041;-67
2022/03/15 08:31:12;;;;;;;5.88;2.42;;;;;;;6.92;64.52;98264.78;5030438;28;20451;-69
2022/03/15 08:33:39;;;;;;;9.82;3.10;;;;;;;6.96;64.00;98267.91;5025388;28;20044;-66
2022/03/15 08:36:06;;;;;;;6.03;2.65;;;;;;;7.12;63.67;98270.16;5025382;28;20057;-65
2022/03/15 08:38:32;;;;;;;10.18;3.15;;;;;;;7.25;63.13;98271.19;5027271;28;20048;-66
2022/03/15 08:40:59;;;;;;;5.32;2.80;;;;;;;7.20;63.21;98268.31;5026970;28;20540;-68
2022/03/15 08:43:27;;;;;;;6.18;2.47;;;;;;;7.36;62.77;98267.03;5024974;28;20362;-68
2022/03/15 08:45:54;;;;;;;6.72;2.30;;;;;;;7.53;62.28;98262.88;5026353;28;20095;-67
2022/03/15 08:48:21;;;;;;;7.88;2.40;;;;;;;7.56;61.12;98264.34;5027390;28;20069;-67
2022/03/15 08:50:48;;;;;;;9.80;2.35;;;;;;;7.63;60.62;98259.75;5029509;28;20045;-69
2022/03/15 08:53:14;;;;;;;5.28;2.05;;;;;;;7.68;61.01;98259.94;5026240;28;20071;-68
2022/03/15 08:55:41;;;;;;;7.07;2.13;;;;;;;7.68;60.57;98265.31;5022880;28;20056;-66
2022/03/15 08:58:08;;;;;;;5.97;2.22;;;;;;;7.82;60.17;98257.22;5027328;28;20045;-66
2022/03/15 09:00:35;;;;;;;7.38;2.08;;;;;;;7.78;60.37;98269.47;5026659;28;20516;-66
2022/03/15 09:03:01;;;;;;;4.93;2.35;;;;;;;7.82;60.46;98265.31;5033058;28;20053;-67
2022/03/15 09:05:28;;;;;;;6.57;1.95;;;;;;;7.96;60.65;98271.47;5025895;28;20049;-69
2022/03/15 09:07:55;;;;;;;12.07;2.45;;;;;;;7.96;61.58;98266.06;5024892;28;20527;-68
2022/03/15 09:10:23;;;;;;;7.85;2.63;;;;;;;8.18;60.19;98268.47;5027396;28;20761;-66
2022/03/15 09:12:52;;;;;;;7.85;2.28;;;;;;;8.16;62.05;98257.09;5028261;28;20508;-68
2022/03/15 09:15:20;;;;;;;4.93;2.17;;;;;;;8.31;62.26;98248.72;5022190;28;20430;-66
2022/03/15 09:17:47;;;;;;;6.07;2.20;;;;;;;8.39;61.78;98253.03;5023312;28;20057;-68
2022/03/15 09:20:24;;;;;;;11.40;3.55;;;;;;;8.14;64.74;98248.41;5023457;28;20183;-67
2022/03/15 09:22:51;;;;;;;5.70;2.13;;;;;;;8.15;65.66;98239.25;5023236;28;20034;-68
2022/03/15 09:25:20;;;;;;;9.07;2.53;;;;;;;7.86;67.28;98247.66;5021951;28;20045;-67
2022/03/15 09:27:47;;;;;;;5.43;2.30;;;;;;;7.97;68.54;98240.78;5023410;28;20049;-67
2022/03/15 09:30:14;;;;;;;4.68;2.05;;;;;;;8.00;68.38;98234.94;5025352;28;20041;-69
2022/03/15 09:32:41;;;;;;;5.38;2.30;;;;;;;7.74;71.00;98234.00;5024481;28;20038;-69
2022/03/15 09:35:08;;;;;;;5.35;2.17;;;;;;;7.45;74.08;98220.00;5022073;28;20037;-67
2022/03/15 09:37:35;;;;;;;6.35;2.30;;;;;;;7.44;75.20;98212.13;5025160;28;20041;-68
2022/03/15 09:40:09;;;;;;;4.78;2.15;;;;;;;7.45;74.05;98211.91;5025461;28;20045;-68
2022/03/15 09:42:36;;;;;;;13.85;2.05;;;;;;;7.17;75.63;98207.59;5025284;28;20040;-69
2022/03/15 09:45:05;;;;;;;8.40;2.35;;;;;;;7.28;76.26;98203.44;5025415;28;20057;-68
2022/03/15 09:47:34;;;;;;;7.85;2.35;;;;;;;7.17;74.85;98196.81;5024868;28;20045;-67
2022/03/15 09:50:06;;;;;;;8.13;3.10;;;;;;;7.30;76.03;98198.69;5025787;28;20047;-67
2022/03/15 09:52:34;;;;;;;;;;;;;;;7.42;76.03;98183.50;5024542;28;20125;-66
2022/03/15 09:55:02;;;;;;;4.72;2.58;;;;;;;7.46;75.01;98183.09;5024951;28;19968;-67
2022/03/15 09:57:33;;;;;;;4.82;1.80;;;;;;;7.29;76.48;98172.75;5025647;28;20049;-67
2022/03/15 10:00:00;;;;;;;4.38;1.98;;;;;;;7.23;76.73;98168.22;5027325;28;20053;-67
2022/03/15 10:02:27;;;;;;;5.45;2.45;;;;;;;7.20;76.80;98165.94;5024445;28;20132;-69
2022/03/15 10:04:59;;;;;;;5.85;2.72;;;;;;;7.28;78.48;98165.72;5025759;28;20504;-68
2022/03/15 10:07:25;;;;;;;6.55;2.50;;;;;;;7.33;77.78;98165.91;5024765;28;20044;-68
2022/03/15 10:09:52;;;;;;;8.77;2.85;;;;;;;7.43;77.82;98152.00;5025482;28;20421;-69
2022/03/15 10:12:19;;;;;;;6.07;2.65;;;;;;;7.59;78.76;98139.09;5024862;28;20038;-66
2022/03/15 10:14:47;;;;;;;5.85;2.40;;;;;;;7.60;77.42;98138.91;5024301;28;20440;-68
2022/03/15 10:17:15;;;;;;;4.65;2.40;;;;;;;7.45;78.07;98143.72;5008154;28;20374;-66
2022/03/15 10:19:53;;;;;;;5.93;2.60;;;;;;;7.41;79.29;98135.25;5022312;28;20042;-66
2022/03/15 10:22:24;;;;;;;6.40;2.10;;;;;;;7.51;77.48;98135.59;5022643;28;20053;-64
2022/03/15 10:24:52;;;;;;;6.00;2.40;;;;;;;7.51;77.87;98129.38;5023123;28;20048;-69
2022/03/15 10:27:19;;;;;;;5.28;2.22;;;;;;;7.46;77.81;98126.50;5028627;28;20048;-67
2022/03/15 10:29:47;;;;;;;7.03;2.58;;;;;;;7.55;77.78;98117.13;5024226;28;20049;-68
2022/03/15 10:32:15;;;;;;;4.38;2.15;;;;;;;7.79;78.20;98117.44;5022064;28;20119;-67
2022/03/15 10:34:43;;;;;;;5.65;2.80;;;;;;;7.71;78.12;98105.06;5018648;28;20529;-66
2022/03/15 10:37:09;;;;;;;6.53;3.10;;;;;;;7.67;78.93;98110.03;5018754;28;20056;-69
2022/03/15 10:39:38;;;;;;;7.03;3.08;;;;;;;7.56;80.05;98108.03;5022254;28;20052;-66
2022/03/15 10:42:08;;;;;;;7.38;3.88;;;;;;;7.50;80.18;98103.47;5021832;28;20045;-67
2022/03/15 10:44:40;;;;;;;8.02;4.03;;;;;;;7.62;80.23;98111.72;5025365;28;20037;-68
2022/03/15 10:47:13;;;;;;;6.18;3.10;;;;;;;7.49;81.47;98113.41;5024000;28;20033;-68
2022/03/15 10:49:54;;;;;;;6.40;2.97;;;;;;;7.42;82.24;98102.66;5022615;28;20045;-67
2022/03/15 10:52:38;;;;;;;5.93;3.03;;;;;;;7.42;82.98;98096.47;5022792;28;20045;-66
2022/03/15 10:55:23;;;;;;;7.18;3.22;;;;;;;7.49;83.02;98088.34;5024234;28;20053;-69
2022/03/15 10:57:58;;;;;;;6.80;3.05;;;;;;;7.57;83.71;98084.59;5025880;28;20151;-69
2022/03/15 11:00:32;;;;;;;8.25;3.88;;;;;;;7.61;83.25;98078.56;5022181;28;20044;-66
2022/03/15 11:02:59;;;;;;;8.27;3.38;;;;;;;7.71;82.86;98070.00;5023480;28;20764;-66
2022/03/15 11:05:27;;;;;;;10.27;3.63;;;;;;;7.72;82.55;98058.19;5022380;28;20038;-68
2022/03/15 11:07:55;;;;;;;8.88;3.30;;;;;;;7.70;81.73;98056.75;5036848;28;20059;-68
2022/03/15 11:10:22;;;;;;;7.13;3.60;;;;;;;7.64;81.33;98059.25;5028719;28;20698;-67
2022/03/15 11:13:02;;;;;;;8.82;4.32;;;;;;;7.53;82.19;98049.16;5025814;28;20099;-66
2022/03/15 11:15:34;;;;;;;6.32;3.67;;;;;;;7.53;82.19;98049.97;5035504;28;20037;-65
2022/03/15 11:18:04;;;;;;;10.02;3.78;;;;;;;7.46;82.65;98051.88;5033101;28;20504;-66
2022/03/15 11:20:35;;;;;;;10.55;3.80;;;;;;;7.46;83.96;98034.88;5026942;28;20135;-67
2022/03/15 11:23:05;;;;;;;8.90;3.92;;;;;;;7.50;83.97;98030.72;5026258;28;20045;-66
2022/03/15 11:25:40;;;;;;;8.52;3.67;;;;;;;7.44;82.87;98032.41;5028790;28;20099;-66
2022/03/15 11:28:14;;;;;;;7.53;3.65;;;;;;;7.51;83.29;98027.81;5024300;28;20531;-66
2022/03/15 11:30:42;;;;;;;8.50;4.28;;;;;;;7.51;83.42;98035.91;5022060;28;20041;-70
2022/03/15 11:33:10;;;;;;;8.10;3.90;;;;;;;7.42;84.03;98027.22;5024492;28;20042;-66
2022/03/15 11:35:39;;;;;;;9.57;4.18;;;;;;;7.48;83.62;98028.22;5025077;28;20053;-66
2022/03/15 11:38:09;;;;;;;6.47;3.72;;;;;;;7.30;83.78;98023.59;5025512;28;20045;-65
2022/03/15 11:40:37;;;;;;;10.05;4.38;;;;;;;7.27;84.01;98024.00;5025812;28;20057;-66
2022/03/15 11:43:42;;;;;;;8.52;3.70;;;;;;;7.35;84.04;98020.22;5027537;28;20456;-67
2022/03/15 11:46:16;;;;;;;10.35;3.85;;;;;;;7.50;83.61;98012.69;5026063;28;20046;-66